Time;durP1;ratioP1;P1;durP2;ratioP2;P2;SDS_P1;SDS_P2;PMS_P1;PMS_P2;Temp;Humidity;BMP_temperature;BMP_pressure;BME280_temperature;BME280_humidity;BME280_pressure;Samples;Min_cycle;Max_cycle;Signal;HPM_P1;HPM_P2
2023/06/11 00:01:26;;;;;;;8.38;6.05;;;;;;;;;;5087182;28;20052;-78
2023/06/11 00:03:53;;;;;;;8.23;5.38;;;;;;;;;;5061163;28;20501;-79
2023/06/11 00:06:23;;;;;;;7.43;5.07;;;;;;;;;;5103785;28;20048;-79
2023/06/11 00:08:53;;;;;;;9.88;5.35;;;;;;;;;;5057450;28;20131;-79
2023/06/11 00:11:20;;;;;;;10.35;5.95;;;;;;;;;;5051944;28;20053;-80
2023/06/11 00:13:46;;;;;;;11.65;6.07;;;;;;;;;;5044787;28;20044;-79
2023/06/11 00:16:13;;;;;;;7.55;5.40;;;;;;;;;;5049990;28;20137;-79
2023/06/11 00:18:42;;;;;;;9.90;5.70;;;;;;;;;;5049610;28;20390;-79
2023/06/11 00:21:09;;;;;;;8.90;5.70;;;;;;;;;;5063203;28;20049;-79
2023/06/11 00:23:36;;;;;;;7.72;5.30;;;;;;;;;;5070211;28;20044;-79
2023/06/11 00:26:06;;;;;;;8.98;5.13;;;;;;;;;;5053663;28;20135;-79
2023/06/11 00:28:32;;;;;;;8.85;5.50;;;;;;;;;;5069263;28;20547;-79
2023/06/11 00:31:00;;;;;;;8.57;5.20;;;;;;;;;;5070112;28;20036;-79
2023/06/11 00:33:26;;;;;;;10.18;6.07;;;;;;;;;;5068818;28;20059;-79
2023/06/11 00:35:52;;;;;;;;;;;;;;;;;;5069948;28;20122;-80
2023/06/11 00:38:19;;;;;;;9.50;5.47;;;;;;;;;;5052140;28;19991;-79
2023/06/11 00:40:45;;;;;;;8.38;5.43;;;;;;;;;;5053900;28;20402;-79
2023/06/11 00:43:11;;;;;;;;;;;;;;;;;;5065214;28;20399;-79
2023/06/11 00:45:37;;;;;;;14.50;5.70;;;;;;;;;;5061940;28;19927;-79
2023/06/11 00:48:03;;;;;;;;;;;;;;;;;;5069516;28;20048;-79
2023/06/11 00:50:29;;;;;;;10.10;5.40;;;;;;;;;;5069044;28;19920;-79
2023/06/11 00:52:56;;;;;;;7.97;5.57;;;;;;;;;;5070210;28;20135;-79
2023/06/11 00:55:22;;;;;;;11.07;5.88;;;;;;;;;;5069818;28;20086;-79
2023/06/11 00:57:49;;;;;;;8.15;5.40;;;;;;;;;;5066101;28;20040;-79
2023/06/11 01:00:15;;;;;;;7.95;5.75;;;;;;;;;;5052991;28;20044;-79
2023/06/11 01:02:44;;;;;;;9.68;5.75;;;;;;;;;;5048963;28;20059;-79
2023/06/11 01:05:17;;;;;;;7.82;5.22;;;;;;;;;;5033089;28;20132;-79
2023/06/11 01:07:50;;;;;;;8.43;5.47;;;;;;;;;;5049760;28;20498;-80
2023/06/11 01:10:17;;;;;;;8.35;5.13;;;;;;;;;;5048814;28;20409;-80
2023/06/11 01:12:43;;;;;;;9.05;5.68;;;;;;;;;;5032501;28;20518;-79
2023/06/11 01:15:14;;;;;;;;;;;;;;;;;;5051558;28;20049;-79
2023/06/11 01:17:52;;;;;;;10.45;6.15;;;;;;;;;;5049189;28;19925;-79
2023/06/11 01:20:25;;;;;;;11.63;6.00;;;;;;;;;;5048887;28;20048;-79
2023/06/11 01:22:54;;;;;;;9.00;5.10;;;;;;;;;;5051251;28;20075;-79
2023/06/11 01:25:44;;;;;;;10.45;6.38;;;;;;;;;;5049382;28;20063;-79
2023/06/11 01:28:11;;;;;;;7.50;5.18;;;;;;;;;;5065184;28;20130;-79
2023/06/11 01:30:38;;;;;;;7.72;5.43;;;;;;;;;;5052417;28;20052;-80
2023/06/11 01:33:05;;;;;;;11.02;6.30;;;;;;;;;;5069018;28;20432;-79
2023/06/11 01:35:33;;;;;;;11.15;5.93;;;;;;;;;;5068943;28;20056;-79
2023/06/11 01:38:00;;;;;;;9.95;5.65;;;;;;;;;;5069520;28;20490;-79
2023/06/11 01:40:26;;;;;;;9.20;6.18;;;;;;;;;;5054360;28;20040;-79
2023/06/11 01:42:53;;;;;;;11.45;5.75;;;;;;;;;;5070170;28;20072;-79
2023/06/11 01:45:19;;;;;;;8.30;5.70;;;;;;;;;;5073294;28;20048;-80
2023/06/11 01:47:46;;;;;;;8.68;5.70;;;;;;;;;;5072636;28;20131;-79
2023/06/11 01:50:16;;;;;;;11.23;6.45;;;;;;;;;;5073138;28;20101;-80
2023/06/11 01:52:42;;;;;;;8.65;5.95;;;;;;;;;;5072582;28;20075;-79
2023/06/11 01:55:08;;;;;;;9.20;6.32;;;;;;;;;;5073163;28;20047;-79
2023/06/11 01:57:35;;;;;;;8.57;5.72;;;;;;;;;;5072602;28;20127;-79
2023/06/11 02:00:04;;;;;;;9.85;6.53;;;;;;;;;;5053474;28;20048;-79
2023/06/11 02:02:31;;;;;;;8.90;6.50;;;;;;;;;;5035861;28;20064;-79
2023/06/11 02:04:57;;;;;;;10.93;6.50;;;;;;;;;;5052917;28;20063;-80
2023/06/11 02:07:23;;;;;;;9.07;6.38;;;;;;;;;;5068833;28;20477;-79
2023/06/11 02:09:50;;;;;;;8.85;5.70;;;;;;;;;;5064859;28;20128;-79
2023/06/11 02:12:16;;;;;;;9.48;6.22;;;;;;;;;;5036172;28;20061;-79
2023/06/11 02:14:42;;;;;;;9.43;5.85;;;;;;;;;;5052204;28;20596;-79
2023/06/11 02:17:09;;;;;;;;;;;;;;;;;;5053400;28;20573;-79
2023/06/11 02:19:35;;;;;;;8.77;5.80;;;;;;;;;;5051836;28;19921;-79
2023/06/11 02:22:02;;;;;;;10.20;6.93;;;;;;;;;;5063104;28;20048;-79
2023/06/11 02:24:28;;;;;;;;;;;;;;;;;;5056332;28;20048;-79
2023/06/11 02:26:54;;;;;;;11.07;6.43;;;;;;;;;;5056226;28;19920;-79
2023/06/11 02:29:19;;;;;;;;;;;;;;;;;;5040046;28;20504;-79
2023/06/11 02:31:46;;;;;;;10.98;6.72;;;;;;;;;;5072164;28;19920;-79
2023/06/11 02:34:11;;;;;;;;;;;;;;;;;;5055281;28;20049;-79
2023/06/11 02:36:38;;;;;;;10.38;6.40;;;;;;;;;;5051855;28;20419;-79
2023/06/11 02:39:04;;;;;;;11.02;7.20;;;;;;;;;;5066908;28;20040;-79
2023/06/11 02:41:30;;;;;;;10.02;6.68;;;;;;;;;;5054921;28;20070;-79
2023/06/11 02:43:56;;;;;;;9.40;6.43;;;;;;;;;;5071826;28;20052;-79
2023/06/11 02:46:22;;;;;;;;;;;;;;;;;;5072232;28;20051;-79
2023/06/11 02:48:48;;;;;;;13.70;7.00;;;;;;;;;;5071827;28;19920;-79
2023/06/11 02:51:14;;;;;;;;;;;;;;;;;;5037744;28;20485;-79
2023/06/11 02:53:40;;;;;;;10.20;7.32;;;;;;;;;;5059215;28;20062;-79
2023/06/11 02:56:06;;;;;;;;;;;;;;;;;;5086335;28;20547;-79
2023/06/11 02:58:32;;;;;;;9.00;6.75;;;;;;;;;;5051719;28;20007;-79
2023/06/11 03:00:58;;;;;;;;;;;;;;;;;;5105021;28;20075;-79
2023/06/11 03:03:24;;;;;;;8.82;6.38;;;;;;;;;;5052066;28;19920;-79
2023/06/11 03:05:50;;;;;;;;;;;;;;;;;;5035709;28;20060;-79
2023/06/11 03:08:16;;;;;;;11.32;7.45;;;;;;;;;;5052159;28;20260;-79
2023/06/11 03:10:42;;;;;;;;;;;;;;;;;;5051860;28;20062;-79
2023/06/11 03:13:08;;;;;;;11.73;7.65;;;;;;;;;;5057641;28;20026;-79
2023/06/11 03:15:34;;;;;;;;;;;;;;;;;;5075471;28;20061;-79
2023/06/11 03:18:01;;;;;;;11.43;7.63;;;;;;;;;;5037873;28;20025;-79
2023/06/11 03:20:27;;;;;;;13.00;7.45;;;;;;;;;;5038141;28;20517;-79
2023/06/11 03:22:53;;;;;;;;;;;;;;;;;;5070401;28;20401;-79
2023/06/11 03:25:19;;;;;;;10.75;7.38;;;;;;;;;;5058757;28;19927;-79
2023/06/11 03:27:46;;;;;;;;;;;;;;;;;;5074814;28;20047;-79
2023/06/11 03:30:12;;;;;;;12.02;7.72;;;;;;;;;;5058490;28;19930;-80
2023/06/11 03:32:41;;;;;;;11.18;7.65;;;;;;;;;;5071322;28;20473;-79
2023/06/11 03:35:07;;;;;;;11.23;8.00;;;;;;;;;;5054679;28;20071;-79
2023/06/11 03:37:33;;;;;;;;;;;;;;;;;;5069338;28;20563;-80
2023/06/11 03:39:59;;;;;;;10.45;7.35;;;;;;;;;;5075076;28;19920;-79
2023/06/11 03:42:28;;;;;;;10.98;7.45;;;;;;;;;;5054467;28;20063;-79
2023/06/11 03:44:54;;;;;;;11.10;7.35;;;;;;;;;;5054330;28;20081;-79
2023/06/11 03:47:21;;;;;;;10.93;7.78;;;;;;;;;;5037927;28;20135;-79
2023/06/11 03:49:48;;;;;;;;;;;;;;;;;;5037702;28;20164;-79
2023/06/11 03:52:15;;;;;;;9.77;7.68;;;;;;;;;;5046598;28;19956;-79
2023/06/11 03:54:41;;;;;;;11.68;8.38;;;;;;;;;;5052480;28;20075;-79
2023/06/11 03:57:07;;;;;;;;;;;;;;;;;;5071761;28;20048;-79
2023/06/11 03:59:33;;;;;;;12.75;8.50;;;;;;;;;;5037329;28;19920;-79
2023/06/11 04:01:59;;;;;;;;;;;;;;;;;;5054707;28;20052;-79
2023/06/11 04:04:25;;;;;;;14.13;7.80;;;;;;;;;;5053378;28;19920;-79
2023/06/11 04:06:51;;;;;;;;;;;;;;;;;;5062991;28;20562;-79
2023/06/11 04:09:17;;;;;;;12.55;8.10;;;;;;;;;;5074132;28;19989;-79
2023/06/11 04:11:43;;;;;;;;;;;;;;;;;;5073350;28;20497;-79
2023/06/11 04:14:09;;;;;;;12.40;8.88;;;;;;;;;;5074216;28;19927;-79
2023/06/11 04:16:35;;;;;;;11.45;7.82;;;;;;;;;;5073811;28;20052;-79
2023/06/11 04:19:01;;;;;;;;;;;;;;;;;;5057375;28;20048;-79
2023/06/11 04:21:27;;;;;;;13.45;8.63;;;;;;;;;;5072341;28;19928;-79
2023/06/11 04:23:53;;;;;;;9.98;8.05;;;;;;;;;;5069146;28;20048;-79
2023/06/11 04:26:19;;;;;;;;;;;;;;;;;;5054496;28;20055;-79
2023/06/11 04:28:45;;;;;;;11.43;8.35;;;;;;;;;;5053329;28;20273;-78
2023/06/11 04:31:12;;;;;;;12.70;9.68;;;;;;;;;;5053727;28;20048;-79
2023/06/11 04:33:38;;;;;;;11.52;8.20;;;;;;;;;;5057301;28;20048;-79
2023/06/11 04:36:07;;;;;;;;;;;;;;;;;;5073969;28;20051;-79
2023/06/11 04:38:37;;;;;;;10.85;6.93;;;;;;;;;;5056745;28;19946;-79
2023/06/11 04:41:08;;;;;;;15.23;9.20;;;;;;;;;;5057128;28;20044;-79
2023/06/11 04:43:34;;;;;;;10.25;7.95;;;;;;;;;;5065618;28;20427;-80
2023/06/11 04:46:03;;;;;;;;;;;;;;;;;;5036991;28;20040;-79
2023/06/11 04:48:31;;;;;;;12.25;8.23;;;;;;;;;;5053087;28;19924;-79
2023/06/11 04:50:59;;;;;;;11.30;8.38;;;;;;;;;;5097427;28;20056;-79
2023/06/11 04:53:27;;;;;;;13.73;9.10;;;;;;;;;;5086817;28;20040;-79
2023/06/11 04:55:54;;;;;;;10.75;8.50;;;;;;;;;;5069560;28;20056;-79
2023/06/11 04:58:21;;;;;;;11.75;7.72;;;;;;;;;;5070324;28;20089;-78
2023/06/11 05:00:48;;;;;;;11.10;8.55;;;;;;;;;;5083779;28;20119;-79
2023/06/11 05:03:16;;;;;;;11.73;8.02;;;;;;;;;;5052093;28;20052;-79
2023/06/11 05:05:49;;;;;;;10.30;8.02;;;;;;;;;;5052059;28;20513;-79
2023/06/11 05:08:16;;;;;;;10.82;8.13;;;;;;;;;;5055077;28;20514;-79
2023/06/11 05:10:42;;;;;;;11.05;7.50;;;;;;;;;;5066877;28;20098;-79
2023/06/11 05:13:08;;;;;;;12.00;8.52;;;;;;;;;;5069646;28;20163;-79
2023/06/11 05:15:34;;;;;;;;;;;;;;;;;;5053051;28;20044;-79
2023/06/11 05:18:00;;;;;;;14.63;9.27;;;;;;;;;;5034857;28;19927;-79
2023/06/11 05:20:28;;;;;;;12.32;7.50;;;;;;;;;;5036273;28;20067;-79
2023/06/11 05:22:58;;;;;;;10.60;7.72;;;;;;;;;;5052705;28;20829;-79
2023/06/11 05:25:28;;;;;;;10.63;8.23;;;;;;;;;;5053099;28;20370;-79
2023/06/11 05:27:55;;;;;;;13.50;9.07;;;;;;;;;;5038289;28;20087;-80
2023/06/11 05:30:24;;;;;;;11.60;8.43;;;;;;;;;;5056459;28;20463;-79
2023/06/11 05:32:54;;;;;;;11.95;7.47;;;;;;;;;;5048222;28;20111;-79
2023/06/11 05:35:20;;;;;;;11.32;8.32;;;;;;;;;;5036098;28;20544;-79
2023/06/11 05:37:47;;;;;;;;;;;;;;;;;;5069291;28;20040;-79
2023/06/11 05:40:13;;;;;;;12.77;8.70;;;;;;;;;;5063095;28;19924;-79
2023/06/11 05:42:39;;;;;;;12.82;9.20;;;;;;;;;;5052489;28;20090;-79
2023/06/11 05:45:06;;;;;;;9.88;6.82;;;;;;;;;;5036411;28;20049;-79
2023/06/11 05:47:33;;;;;;;11.88;7.65;;;;;;;;;;5052053;28;20084;-79
2023/06/11 05:49:59;;;;;;;12.80;8.43;;;;;;;;;;5051823;28;20115;-79
2023/06/11 05:52:26;;;;;;;9.95;6.65;;;;;;;;;;5066532;28;20062;-79
2023/06/11 05:54:52;;;;;;;;;;;;;;;;;;5069890;28;20052;-78
2023/06/11 05:57:21;;;;;;;10.13;7.43;;;;;;;;;;5054909;28;19924;-79
2023/06/11 05:59:48;;;;;;;14.05;8.05;;;;;;;;;;5072272;28;20094;-79
2023/06/11 06:02:14;;;;;;;14.02;7.30;;;;;;;;;;5072599;28;20047;-78
2023/06/11 06:04:40;;;;;;;;;;;;;;;;;;5055560;28;20058;-79
2023/06/11 06:07:06;;;;;;;8.57;6.38;;;;;;;;;;5071959;28;20278;-78
2023/06/11 06:09:32;;;;;;;;;;;;;;;;;;5073242;28;20047;-76
2023/06/11 06:11:58;;;;;;;11.88;7.22;;;;;;;;;;5071565;28;19920;-79
2023/06/11 06:14:24;;;;;;;;;;;;;;;;;;5056776;28;20769;-78
2023/06/11 06:16:50;;;;;;;7.57;5.90;;;;;;;;;;5052359;28;19925;-79
2023/06/11 06:19:16;;;;;;;8.70;6.65;;;;;;;;;;5052093;28;20055;-78
2023/06/11 06:21:42;;;;;;;;;;;;;;;;;;5052511;28;20056;-79
2023/06/11 06:24:08;;;;;;;9.70;7.13;;;;;;;;;;5052560;28;20061;-79
2023/06/11 06:26:34;;;;;;;9.25;6.25;;;;;;;;;;5037700;28;20139;-78
2023/06/11 06:29:02;;;;;;;;;;;;;;;;;;5064828;28;20044;-79
2023/06/11 06:31:28;;;;;;;7.93;6.05;;;;;;;;;;5076096;28;19920;-78
2023/06/11 06:33:54;;;;;;;9.75;7.03;;;;;;;;;;5072270;28;20059;-79
2023/06/11 06:36:20;;;;;;;8.52;6.43;;;;;;;;;;5066979;28;20548;-78
2023/06/11 06:38:46;;;;;;;;;;;;;;;;;;5075070;28;20052;-79
2023/06/11 06:41:12;;;;;;;11.48;7.57;;;;;;;;;;5075897;28;19926;-79
2023/06/11 06:43:38;;;;;;;9.18;6.10;;;;;;;;;;5076009;28;20371;-79
2023/06/11 06:46:05;;;;;;;;;;;;;;;;;;5075767;28;20043;-79
2023/06/11 06:48:32;;;;;;;11.60;5.88;;;;;;;;;;5074749;28;20278;-79
2023/06/11 06:50:58;;;;;;;10.68;7.10;;;;;;;;;;5074285;28;20044;-78
2023/06/11 06:53:24;;;;;;;;;;;;;;;;;;5059871;28;20394;-79
2023/06/11 06:55:50;;;;;;;10.82;7.60;;;;;;;;;;5071262;28;19920;-79
2023/06/11 06:58:16;;;;;;;13.95;7.80;;;;;;;;;;5064928;28;20069;-78
2023/06/11 07:00:42;;;;;;;;;;;;;;;;;;5039621;28;20052;-79
2023/06/11 07:03:09;;;;;;;10.13;7.82;;;;;;;;;;5037711;28;19920;-79
2023/06/11 07:05:35;;;;;;;12.30;7.10;;;;;;;;;;5038742;28;20098;-78
2023/06/11 07:08:01;;;;;;;;;;;;;;;;;;5072157;28;20486;-79
2023/06/11 07:10:30;;;;;;;9.05;6.68;;;;;;;;;;5038871;28;19932;-79
2023/06/11 07:12:56;;;;;;;12.30;8.00;;;;;;;;;;5054020;28;20179;-79
2023/06/11 07:15:22;;;;;;;8.50;6.63;;;;;;;;;;5065093;28;20052;-79
2023/06/11 07:17:48;;;;;;;;;;;;;;;;;;5074820;28;20043;-79
2023/06/11 07:20:14;;;;;;;11.85;7.75;;;;;;;;;;5058136;28;20328;-79
2023/06/11 07:22:40;;;;;;;9.65;7.50;;;;;;;;;;5072132;28;20508;-79
2023/06/11 07:25:06;;;;;;;;;;;;;;;;;;5075457;28;20193;-79
2023/06/11 07:27:32;;;;;;;9.32;6.57;;;;;;;;;;5074964;28;19958;-79
2023/06/11 07:29:58;;;;;;;;;;;;;;;;;;5075098;28;20058;-79
2023/06/11 07:32:24;;;;;;;8.90;6.10;;;;;;;;;;5057732;28;19923;-79
2023/06/11 07:34:50;;;;;;;8.60;6.60;;;;;;;;;;5058117;28;20056;-80
2023/06/11 07:37:16;;;;;;;;;;;;;;;;;;5063178;28;20065;-79
2023/06/11 07:39:43;;;;;;;8.43;6.13;;;;;;;;;;5055034;28;19955;-79
2023/06/11 07:42:10;;;;;;;8.52;6.18;;;;;;;;;;5063385;28;20052;-79
2023/06/11 07:44:36;;;;;;;9.85;6.80;;;;;;;;;;5074584;28;20477;-79
2023/06/11 07:47:02;;;;;;;8.90;6.10;;;;;;;;;;5056517;28;20075;-79
2023/06/11 07:49:29;;;;;;;8.85;6.40;;;;;;;;;;5056612;28;20384;-79
2023/06/11 07:51:55;;;;;;;7.68;5.88;;;;;;;;;;5056296;28;20514;-79
2023/06/11 07:54:21;;;;;;;11.43;7.10;;;;;;;;;;5057797;28;20075;-79
2023/06/11 07:56:47;;;;;;;8.18;6.20;;;;;;;;;;5058041;28;20052;-79
2023/06/11 07:59:15;;;;;;;9.48;6.63;;;;;;;;;;5073888;28;20113;-79
2023/06/11 08:01:41;;;;;;;11.50;6.68;;;;;;;;;;5074465;28;20052;-78
2023/06/11 08:04:07;;;;;;;12.02;6.75;;;;;;;;;;5070959;28;20052;-77
2023/06/11 08:06:35;;;;;;;11.45;6.43;;;;;;;;;;5057351;28;20370;-80
2023/06/11 08:09:01;;;;;;;8.82;5.82;;;;;;;;;;5037943;28;20056;-87
2023/06/11 08:11:27;;;;;;;10.30;7.05;;;;;;;;;;5072801;28;20067;-76
2023/06/11 08:13:53;;;;;;;8.98;6.75;;;;;;;;;;5057609;28;20485;-83
2023/06/11 08:16:19;;;;;;;8.80;5.90;;;;;;;;;;5057587;28;20130;-80
2023/06/11 08:18:45;;;;;;;6.57;4.72;;;;;;;;;;5056573;28;20481;-79
2023/06/11 08:21:11;;;;;;;9.50;6.30;;;;;;;;;;5070980;28;20053;-69
2023/06/11 08:23:39;;;;;;;8.70;6.57;;;;;;;;;;5074376;28;20048;-69
2023/06/11 08:26:05;;;;;;;7.70;6.13;;;;;;;;;;5083301;28;20052;-69
2023/06/11 08:28:31;;;;;;;8.27;6.15;;;;;;;;;;5070692;28;20052;-68
2023/06/11 08:30:57;;;;;;;9.15;5.82;;;;;;;;;;5074425;28;20036;-69
2023/06/11 08:33:23;;;;;;;9.52;6.80;;;;;;;;;;5086292;28;20044;-69
2023/06/11 08:35:50;;;;;;;8.55;6.13;;;;;;;;;;5076484;28;20128;-69
2023/06/11 08:38:16;;;;;;;11.30;7.22;;;;;;;;;;5078436;28;20040;-69
2023/06/11 08:40:42;;;;;;;9.82;6.35;;;;;;;;;;5089595;28;20063;-69
2023/06/11 08:43:09;;;;;;;9.95;6.75;;;;;;;;;;5090174;28;20096;-69
2023/06/11 08:45:35;;;;;;;10.85;6.90;;;;;;;;;;5089943;28;20497;-69
2023/06/11 08:48:05;;;;;;;10.43;7.50;;;;;;;;;;5089200;28;20044;-70
2023/06/11 08:50:31;;;;;;;9.48;6.53;;;;;;;;;;5070187;28;20040;-69
2023/06/11 08:53:01;;;;;;;9.13;6.30;;;;;;;;;;5080281;28;20058;-70
2023/06/11 08:55:29;;;;;;;9.40;6.22;;;;;;;;;;5078101;28;20098;-69
2023/06/11 08:57:55;;;;;;;11.30;6.53;;;;;;;;;;5089908;28;20568;-69
2023/06/11 09:00:21;;;;;;;10.85;7.22;;;;;;;;;;5090235;28;20135;-69
2023/06/11 09:02:48;;;;;;;10.63;6.78;;;;;;;;;;5072441;28;20521;-68
2023/06/11 09:05:14;;;;;;;8.88;6.50;;;;;;;;;;5072029;28;20056;-69
2023/06/11 09:07:52;;;;;;;8.25;5.78;;;;;;;;;;5090414;28;20123;-69
2023/06/11 09:10:19;;;;;;;7.35;5.75;;;;;;;;;;5087677;28;20105;-79
2023/06/11 09:12:45;;;;;;;11.30;6.03;;;;;;;;;;5075480;28;20059;-80
2023/06/11 09:15:12;;;;;;;9.40;6.85;;;;;;;;;;5058589;28;20133;-78
2023/06/11 09:17:40;;;;;;;7.40;6.13;;;;;;;;;;5059263;28;20040;-78
2023/06/11 09:20:07;;;;;;;8.73;6.07;;;;;;;;;;5065362;28;20045;-79
2023/06/11 09:22:35;;;;;;;8.25;6.00;;;;;;;;;;5082984;28;20556;-79
2023/06/11 09:25:16;;;;;;;6.97;5.65;;;;;;;;;;5056632;28;20052;-84
2023/06/11 09:27:43;;;;;;;9.13;6.32;;;;;;;;;;5101890;28;20187;-79
2023/06/11 09:30:12;;;;;;;10.55;5.97;;;;;;;;;;5072278;28;20496;-79
2023/06/11 09:32:42;;;;;;;11.35;6.03;;;;;;;;;;5054731;28;20123;-79
2023/06/11 09:35:09;;;;;;;10.50;6.15;;;;;;;;;;5035801;28;20481;-78
2023/06/11 09:37:41;;;;;;;7.60;5.68;;;;;;;;;;5054403;28;20066;-80
2023/06/11 09:40:12;;;;;;;8.50;5.60;;;;;;;;;;5054889;28;20048;-78
2023/06/11 09:42:38;;;;;;;8.68;5.68;;;;;;;;;;5053318;28;20060;-81
2023/06/11 09:45:05;;;;;;;7.43;5.53;;;;;;;;;;5063348;28;20054;-82
2023/06/11 09:47:32;;;;;;;7.65;5.68;;;;;;;;;;5072275;28;20101;-80
2023/06/11 09:50:02;;;;;;;7.63;5.32;;;;;;;;;;5055543;28;20140;-82
2023/06/11 09:52:29;;;;;;;9.27;5.88;;;;;;;;;;5056165;28;20710;-80
2023/06/11 09:54:55;;;;;;;8.55;5.30;;;;;;;;;;5073467;28;20122;-80
2023/06/11 09:57:22;;;;;;;7.63;5.35;;;;;;;;;;5070024;28;20131;-81
2023/06/11 09:59:48;;;;;;;7.82;4.82;;;;;;;;;;5067944;28;20040;-80
2023/06/11 10:02:14;;;;;;;7.03;5.15;;;;;;;;;;5072109;28;20052;-80
2023/06/11 10:04:41;;;;;;;6.85;5.05;;;;;;;;;;5063335;28;20044;-80
2023/06/11 10:07:08;;;;;;;8.25;5.18;;;;;;;;;;5040814;28;20066;-88
2023/06/11 10:09:34;;;;;;;9.43;5.70;;;;;;;;;;5056903;28;20071;-80
2023/06/11 10:12:01;;;;;;;11.02;5.20;;;;;;;;;;5074558;28;20155;-79
2023/06/11 10:14:27;;;;;;;6.55;5.10;;;;;;;;;;5093761;28;20058;-79
2023/06/11 10:16:56;;;;;;;7.85;5.35;;;;;;;;;;5069981;28;20044;-80
2023/06/11 10:19:22;;;;;;;10.90;5.05;;;;;;;;;;5047526;28;20052;-80
2023/06/11 10:21:50;;;;;;;8.18;5.63;;;;;;;;;;5089170;28;20049;-79
2023/06/11 10:24:22;;;;;;;7.72;5.25;;;;;;;;;;5073268;28;20110;-81
2023/06/11 10:27:07;;;;;;;7.47;5.07;;;;;;;;;;5074413;28;20101;-80
2023/06/11 10:29:40;;;;;;;9.32;5.50;;;;;;;;;;5073938;28;20118;-82
2023/06/11 10:32:19;;;;;;;6.50;5.05;;;;;;;;;;5063809;28;20101;-82
2023/06/11 10:34:45;;;;;;;9.63;5.07;;;;;;;;;;5087964;28;20055;-82
2023/06/11 10:37:12;;;;;;;7.03;5.20;;;;;;;;;;5065033;28;20055;-82
2023/06/11 10:39:49;;;;;;;6.32;4.93;;;;;;;;;;5056599;28;20551;-80
2023/06/11 10:42:22;;;;;;;8.82;5.72;;;;;;;;;;5070785;28;20048;-80
2023/06/11 10:44:48;;;;;;;11.07;5.30;;;;;;;;;;5055119;28;20427;-78
2023/06/11 10:47:14;;;;;;;9.80;5.95;;;;;;;;;;5071416;28;20086;-82
2023/06/11 10:49:40;;;;;;;8.73;5.95;;;;;;;;;;5055163;28;20041;-79
2023/06/11 10:52:07;;;;;;;6.72;4.60;;;;;;;;;;5073352;28;20365;-79
2023/06/11 10:54:34;;;;;;;8.30;5.45;;;;;;;;;;5071639;28;20041;-79
2023/06/11 10:57:01;;;;;;;8.77;5.03;;;;;;;;;;5071204;28;20075;-79
2023/06/11 10:59:27;;;;;;;8.57;4.70;;;;;;;;;;5054231;28;20111;-78
2023/06/11 11:01:54;;;;;;;7.60;5.00;;;;;;;;;;5072091;28;20457;-78
2023/06/11 11:04:21;;;;;;;9.40;5.85;;;;;;;;;;5052807;28;20040;-78
2023/06/11 11:06:48;;;;;;;10.77;5.57;;;;;;;;;;5053493;28;20049;-78
2023/06/11 11:09:21;;;;;;;7.07;5.30;;;;;;;;;;5054157;28;20041;-78
2023/06/11 11:11:48;;;;;;;5.95;4.53;;;;;;;;;;5079590;28;20070;-78
2023/06/11 11:14:16;;;;;;;6.45;4.80;;;;;;;;;;5041412;28;20121;-79
2023/06/11 11:16:43;;;;;;;6.80;4.70;;;;;;;;;;5058436;28;20135;-78
2023/06/11 11:19:09;;;;;;;8.20;4.93;;;;;;;;;;5073620;28;20071;-79
2023/06/11 11:21:36;;;;;;;8.95;4.57;;;;;;;;;;5074048;28;20044;-78
2023/06/11 11:24:02;;;;;;;9.43;5.22;;;;;;;;;;5074883;28;20048;-78
2023/06/11 11:26:28;;;;;;;8.05;4.60;;;;;;;;;;5064990;28;20134;-80
2023/06/11 11:28:54;;;;;;;7.80;4.60;;;;;;;;;;5088558;28;20047;-76
2023/06/11 11:31:22;;;;;;;6.57;4.55;;;;;;;;;;5074389;28;20401;-78
2023/06/11 11:33:50;;;;;;;8.50;5.18;;;;;;;;;;5073767;28;20477;-78
2023/06/11 11:36:16;;;;;;;6.75;4.35;;;;;;;;;;5070800;28;20059;-78
2023/06/11 11:38:42;;;;;;;7.72;4.47;;;;;;;;;;5079085;28;20128;-79
2023/06/11 11:41:11;;;;;;;6.47;4.72;;;;;;;;;;5074385;28;20056;-79
2023/06/11 11:43:41;;;;;;;9.25;5.13;;;;;;;;;;5089380;28;20055;-79
2023/06/11 11:46:15;;;;;;;10.15;4.70;;;;;;;;;;5056693;28;20052;-78
2023/06/11 11:48:42;;;;;;;6.97;4.88;;;;;;;;;;5068457;28;20074;-78
2023/06/11 11:51:08;;;;;;;6.30;4.38;;;;;;;;;;5073120;28;20416;-78
2023/06/11 11:53:36;;;;;;;8.05;4.40;;;;;;;;;;5085196;28;20055;-77
2023/06/11 11:56:04;;;;;;;6.13;4.43;;;;;;;;;;5065105;28;20072;-77
2023/06/11 11:58:36;;;;;;;7.60;4.60;;;;;;;;;;5067598;28;20371;-77
2023/06/11 12:01:02;;;;;;;7.18;5.13;;;;;;;;;;5054388;28;20045;-77
2023/06/11 12:03:28;;;;;;;9.68;4.88;;;;;;;;;;5070740;28;20044;-77
2023/06/11 12:05:56;;;;;;;9.80;4.88;;;;;;;;;;5053947;28;20052;-78
2023/06/11 12:08:22;;;;;;;7.18;4.18;;;;;;;;;;5067198;28;20037;-78
2023/06/11 12:10:48;;;;;;;5.53;4.10;;;;;;;;;;5046512;28;20048;-78
2023/06/11 12:13:14;;;;;;;7.90;4.30;;;;;;;;;;5090967;28;20044;-77
2023/06/11 12:15:40;;;;;;;5.95;3.60;;;;;;;;;;5091455;28;20060;-78
2023/06/11 12:18:06;;;;;;;8.55;4.72;;;;;;;;;;5056342;28;20123;-78
2023/06/11 12:20:32;;;;;;;7.00;4.50;;;;;;;;;;5073237;28;20454;-78
2023/06/11 12:22:59;;;;;;;7.30;4.45;;;;;;;;;;5062134;28;20071;-79
2023/06/11 12:25:25;;;;;;;7.10;4.70;;;;;;;;;;5044610;28;20127;-77
2023/06/11 12:27:52;;;;;;;10.70;4.85;;;;;;;;;;5053453;28;20674;-77
2023/06/11 12:30:18;;;;;;;8.10;4.82;;;;;;;;;;5083617;28;20421;-77
2023/06/11 12:32:45;;;;;;;6.07;4.30;;;;;;;;;;5059267;28;20059;-77
2023/06/11 12:35:11;;;;;;;7.65;4.18;;;;;;;;;;5091378;28;20468;-77
2023/06/11 12:37:37;;;;;;;7.07;4.53;;;;;;;;;;5073087;28;20127;-78
2023/06/11 12:40:04;;;;;;;6.35;4.10;;;;;;;;;;5073206;28;20044;-78
2023/06/11 12:42:32;;;;;;;6.20;4.07;;;;;;;;;;5071668;28;20044;-76
2023/06/11 12:44:58;;;;;;;6.38;4.47;;;;;;;;;;5087683;28;20055;-79
2023/06/11 12:47:24;;;;;;;8.50;4.70;;;;;;;;;;5066214;28;20048;-77
2023/06/11 12:49:52;;;;;;;7.25;4.43;;;;;;;;;;5056898;28;20485;-78
2023/06/11 12:52:18;;;;;;;6.47;4.63;;;;;;;;;;5052770;28;20059;-78
2023/06/11 12:54:44;;;;;;;7.57;4.80;;;;;;;;;;5052328;28;20494;-78
2023/06/11 12:57:13;;;;;;;7.45;4.97;;;;;;;;;;5056260;28;20036;-78
2023/06/11 12:59:39;;;;;;;8.00;5.03;;;;;;;;;;5062545;28;20488;-78
2023/06/11 13:02:06;;;;;;;8.00;4.57;;;;;;;;;;5051761;28;20059;-78
2023/06/11 13:04:32;;;;;;;6.78;4.93;;;;;;;;;;5071775;28;20048;-77
2023/06/11 13:06:58;;;;;;;7.90;4.68;;;;;;;;;;5084036;28;20048;-77
2023/06/11 13:09:24;;;;;;;12.07;4.90;;;;;;;;;;5059582;28;20049;-77
2023/06/11 13:11:51;;;;;;;8.52;5.28;;;;;;;;;;5106319;28;20058;-80
2023/06/11 13:14:17;;;;;;;7.95;4.55;;;;;;;;;;5090906;28;20093;-79
2023/06/11 13:16:43;;;;;;;7.32;4.95;;;;;;;;;;5061317;28;20078;-79
2023/06/11 13:19:09;;;;;;;7.75;4.65;;;;;;;;;;5069316;28;20047;-81
2023/06/11 13:21:36;;;;;;;7.85;4.63;;;;;;;;;;5071937;28;20121;-81
2023/06/11 13:24:02;;;;;;;10.43;5.05;;;;;;;;;;5069677;28;20101;-81
2023/06/11 13:26:29;;;;;;;6.68;4.50;;;;;;;;;;5060998;28;20058;-81
2023/06/11 13:28:55;;;;;;;7.63;4.65;;;;;;;;;;5069884;28;20435;-81
2023/06/11 13:31:21;;;;;;;8.27;4.55;;;;;;;;;;5090520;28;20473;-81
2023/06/11 13:33:47;;;;;;;10.80;5.03;;;;;;;;;;5085113;28;20048;-80
2023/06/11 13:36:14;;;;;;;9.82;4.70;;;;;;;;;;5059789;28;20097;-81
2023/06/11 13:38:40;;;;;;;13.10;4.90;;;;;;;;;;5071362;28;20047;-80
2023/06/11 13:41:07;;;;;;;9.60;4.95;;;;;;;;;;5073013;28;20044;-81
2023/06/11 13:43:33;;;;;;;13.70;5.03;;;;;;;;;;5071613;28;20048;-80
2023/06/11 13:45:59;;;;;;;8.30;4.70;;;;;;;;;;5080314;28;20055;-81
2023/06/11 13:48:26;;;;;;;10.32;4.70;;;;;;;;;;5064136;28;20047;-81
2023/06/11 13:50:54;;;;;;;7.90;4.63;;;;;;;;;;5055428;28;20500;-81
2023/06/11 13:53:20;;;;;;;8.43;4.70;;;;;;;;;;5077096;28;20395;-81
2023/06/11 13:55:47;;;;;;;8.93;4.72;;;;;;;;;;5064628;28;20193;-81
2023/06/11 13:58:14;;;;;;;9.75;5.30;;;;;;;;;;5051219;28;20509;-81
2023/06/11 14:00:41;;;;;;;8.80;5.10;;;;;;;;;;5069185;28;20051;-81
2023/06/11 14:03:07;;;;;;;8.98;4.93;;;;;;;;;;5070588;28;20046;-81
2023/06/11 14:05:33;;;;;;;6.90;4.75;;;;;;;;;;5053156;28;20051;-80
2023/06/11 14:07:59;;;;;;;7.55;4.72;;;;;;;;;;5076960;28;20044;-82
2023/06/11 14:10:26;;;;;;;9.07;5.07;;;;;;;;;;5056063;28;20036;-83
2023/06/11 14:12:52;;;;;;;9.90;5.00;;;;;;;;;;5070038;28;20048;-84
2023/06/11 14:15:18;;;;;;;10.65;5.30;;;;;;;;;;5072673;28;20131;-83
2023/06/11 14:17:45;;;;;;;7.18;4.53;;;;;;;;;;5071027;28;20063;-83
2023/06/11 14:20:12;;;;;;;8.45;4.80;;;;;;;;;;5072382;28;20044;-83
2023/06/11 14:22:38;;;;;;;10.00;5.30;;;;;;;;;;5071314;28;20097;-81
2023/06/11 14:25:04;;;;;;;6.60;4.75;;;;;;;;;;5078624;28;20044;-80
2023/06/11 14:27:30;;;;;;;9.18;4.55;;;;;;;;;;5087883;28;20084;-78
2023/06/11 14:29:56;;;;;;;12.95;4.70;;;;;;;;;;5090337;28;20075;-83
2023/06/11 14:32:23;;;;;;;6.55;4.30;;;;;;;;;;5055008;28;20504;-84
2023/06/11 14:34:50;;;;;;;6.40;4.18;;;;;;;;;;5071846;28;20463;-84
2023/06/11 14:37:16;;;;;;;6.63;4.30;;;;;;;;;;5068323;28;20072;-85
2023/06/11 14:39:42;;;;;;;6.88;4.28;;;;;;;;;;5058123;28;20049;-84
2023/06/11 14:42:08;;;;;;;7.30;4.03;;;;;;;;;;5068852;28;20079;-84
2023/06/11 14:44:34;;;;;;;6.85;4.20;;;;;;;;;;5055072;28;20065;-84
2023/06/11 14:47:00;;;;;;;6.75;4.35;;;;;;;;;;5058947;28;20079;-84
2023/06/11 14:49:26;;;;;;;7.15;4.15;;;;;;;;;;5044715;28;20049;-85
2023/06/11 14:51:52;;;;;;;9.85;4.22;;;;;;;;;;5087996;28;20045;-85